createdAt,value
2023-01-23T00:02:09.567Z,-1.65
2023-01-23T00:04:38.713Z,-1.66
2023-01-23T00:07:07.761Z,-1.75
2023-01-23T00:09:38.245Z,-1.91
2023-01-23T00:12:07.752Z,-1.94
2023-01-23T00:14:36.883Z,-1.88
2023-01-23T00:17:05.948Z,-1.90
2023-01-23T00:19:35.077Z,-1.95
2023-01-23T00:22:04.354Z,-2.03
2023-01-23T00:24:33.524Z,-2.04
2023-01-23T00:27:03.969Z,-2.01
2023-01-23T00:29:33.166Z,-1.98
2023-01-23T00:32:02.457Z,-1.99
2023-01-23T00:34:32.175Z,-1.99
2023-01-23T00:37:01.221Z,-2.15
2023-01-23T00:39:30.526Z,-2.19
2023-01-23T00:41:59.627Z,-2.13
2023-01-23T00:44:30.957Z,-2.24
2023-01-23T00:47:00.582Z,-2.43
2023-01-23T00:49:30.555Z,-2.38
2023-01-23T00:52:01.219Z,-2.26
2023-01-23T00:54:30.272Z,-2.28
2023-01-23T00:56:59.507Z,-2.24
2023-01-23T00:59:30.264Z,-2.30
2023-01-23T01:01:59.530Z,-2.29
2023-01-23T01:04:28.832Z,-2.27
2023-01-23T01:06:58.015Z,-2.23
2023-01-23T01:09:27.186Z,-2.13
2023-01-23T01:11:56.283Z,-2.20
2023-01-23T01:14:25.347Z,-2.20
2023-01-23T01:16:55.823Z,-2.13
2023-01-23T01:19:24.890Z,-1.94
2023-01-23T01:21:54.088Z,-1.97
2023-01-23T01:24:23.190Z,-1.90
2023-01-23T01:26:52.283Z,-1.99
2023-01-23T01:29:21.460Z,-2.16
2023-01-23T01:31:50.631Z,-2.11
2023-01-23T01:34:23.760Z,-2.11
2023-01-23T01:36:53.590Z,-2.16
2023-01-23T01:39:22.759Z,-2.09
2023-01-23T01:41:51.852Z,-1.96
2023-01-23T01:44:23.480Z,-2.09
2023-01-23T01:46:53.336Z,-1.86
2023-01-23T01:49:30.102Z,-1.69
2023-01-23T01:52:03.956Z,-1.64
2023-01-23T01:54:37.925Z,-1.54
2023-01-23T01:57:13.058Z,-1.67
2023-01-23T01:59:49.118Z,-1.78
2023-01-23T02:02:24.024Z,-1.88
2023-01-23T02:05:00.512Z,-1.80
2023-01-23T02:07:36.672Z,-1.70
2023-01-23T02:10:08.657Z,-1.69
2023-01-23T02:12:42.310Z,-1.73
2023-01-23T02:15:11.725Z,-1.73
2023-01-23T02:17:43.114Z,-1.73
2023-01-23T02:20:20.521Z,-1.68
2023-01-23T02:22:58.825Z,-1.59
2023-01-23T02:25:40.154Z,-1.60
2023-01-23T02:28:11.197Z,-1.57
2023-01-23T02:30:43.695Z,-1.57
2023-01-23T02:33:46.149Z,-1.54
2023-01-23T02:36:16.558Z,-1.46
2023-01-23T02:38:54.926Z,-1.52
2023-01-23T02:41:30.769Z,-1.46
2023-01-23T02:44:08.724Z,-1.43
2023-01-23T02:46:38.863Z,-1.47
2023-01-23T02:49:08.234Z,-1.53
2023-01-23T02:51:37.814Z,-1.51
2023-01-23T02:54:07.345Z,-1.50
2023-01-23T02:56:36.445Z,-1.48
2023-01-23T02:59:24.590Z,-1.44
2023-01-23T03:01:53.895Z,-1.38
2023-01-23T03:04:23.835Z,-1.34
2023-01-23T03:06:52.914Z,-1.34
2023-01-23T03:09:22.701Z,-1.33
2023-01-23T03:11:52.320Z,-1.29
2023-01-23T03:14:25.083Z,-1.22
2023-01-23T03:16:55.353Z,-1.22
2023-01-23T03:19:31.611Z,-1.10
2023-01-23T03:22:00.995Z,-1.09
2023-01-23T03:24:30.125Z,-0.96
2023-01-23T03:26:59.621Z,-0.92
2023-01-23T03:29:49.879Z,-0.86
2023-01-23T03:32:19.174Z,-0.77
2023-01-23T03:34:48.393Z,-0.52
2023-01-23T03:37:19.684Z,-0.38
2023-01-23T03:40:06.995Z,-0.15
2023-01-23T03:42:36.722Z,0.03
2023-01-23T03:45:10.347Z,0.18
2023-01-23T03:47:39.512Z,0.38
2023-01-23T03:50:11.162Z,0.55
2023-01-23T03:52:42.518Z,0.85
2023-01-23T03:55:12.630Z,0.98
2023-01-23T03:57:42.552Z,1.02
2023-01-23T04:00:16.915Z,1.13
2023-01-23T04:03:09.607Z,1.32
2023-01-23T04:05:40.810Z,1.33
2023-01-23T04:08:09.930Z,1.52
2023-01-23T04:10:39.747Z,1.61
2023-01-23T04:13:15.861Z,1.56
2023-01-23T04:15:46.619Z,1.58
2023-01-23T04:18:18.334Z,1.55
2023-01-23T04:20:47.394Z,1.47
2023-01-23T04:23:16.584Z,1.53
2023-01-23T04:25:45.691Z,1.55
2023-01-23T04:28:16.453Z,1.51
2023-01-23T04:30:48.585Z,1.55
2023-01-23T04:33:23.953Z,1.50
2023-01-23T04:35:57.271Z,1.57
2023-01-23T04:38:30.613Z,1.51
2023-01-23T04:41:07.071Z,1.56
2023-01-23T04:43:39.761Z,1.56
2023-01-23T04:46:13.895Z,1.50
2023-01-23T04:48:57.955Z,1.51
2023-01-23T04:51:28.512Z,1.50
2023-01-23T04:53:58.337Z,1.52
2023-01-23T04:56:27.481Z,1.64
2023-01-23T04:58:57.875Z,1.78
2023-01-23T05:01:28.915Z,1.94
2023-01-23T05:04:03.205Z,1.98
2023-01-23T05:06:32.667Z,2.05
2023-01-23T05:09:02.150Z,2.12
2023-01-23T05:11:43.836Z,2.12
2023-01-23T05:14:15.050Z,2.14
2023-01-23T05:16:46.743Z,2.15
2023-01-23T05:19:18.511Z,2.22
2023-01-23T05:21:48.082Z,2.24
2023-01-23T05:24:20.124Z,2.30
2023-01-23T05:26:49.314Z,2.26
2023-01-23T05:29:20.623Z,2.31
2023-01-23T05:32:13.831Z,2.39
2023-01-23T05:34:46.072Z,2.37
2023-01-23T05:37:27.770Z,2.38
2023-01-23T05:40:01.458Z,2.40
2023-01-23T05:42:50.900Z,2.42
2023-01-23T05:45:46.249Z,2.47
2023-01-23T05:48:27.964Z,2.46
2023-01-23T05:50:58.064Z,2.57
2023-01-23T05:53:28.070Z,2.54
2023-01-23T05:55:57.523Z,2.54
2023-01-23T05:58:26.929Z,2.52
2023-01-23T06:00:58.896Z,2.38
2023-01-23T06:03:49.852Z,2.49
2023-01-23T06:06:39.238Z,2.51
2023-01-23T06:09:08.376Z,2.51
2023-01-23T06:11:38.712Z,2.51
2023-01-23T06:14:09.707Z,2.64
2023-01-23T06:16:39.384Z,2.64
2023-01-23T06:19:11.423Z,2.74
2023-01-23T06:21:40.654Z,2.68
2023-01-23T06:24:10.324Z,2.67
2023-01-23T06:26:39.372Z,2.71
2023-01-23T06:29:09.209Z,2.69
2023-01-23T06:31:38.344Z,2.59
2023-01-23T06:34:08.520Z,2.49
2023-01-23T06:36:46.261Z,2.61
2023-01-23T06:39:16.217Z,2.71
2023-01-23T06:41:45.756Z,2.72
2023-01-23T06:44:21.136Z,2.94
2023-01-23T06:46:50.313Z,2.89
2023-01-23T06:49:19.421Z,2.92
2023-01-23T06:51:50.949Z,2.86
2023-01-23T06:54:21.177Z,2.90
2023-01-23T06:56:51.769Z,2.95
2023-01-23T06:59:23.335Z,3.11
2023-01-23T07:01:52.622Z,3.16
2023-01-23T07:04:36.165Z,3.41
2023-01-23T07:07:07.089Z,3.50
2023-01-23T07:09:36.563Z,3.49
2023-01-23T07:12:11.427Z,3.50
2023-01-23T07:14:41.447Z,3.60
2023-01-23T07:17:12.676Z,3.59
2023-01-23T07:19:42.522Z,3.70
2023-01-23T07:22:19.309Z,3.69
2023-01-23T07:24:48.927Z,3.65
2023-01-23T07:27:18.326Z,3.77
2023-01-23T07:29:47.419Z,3.82
2023-01-23T07:32:16.458Z,3.77
2023-01-23T07:34:45.485Z,3.81
2023-01-23T07:37:15.997Z,3.79
2023-01-23T07:39:45.557Z,3.83
2023-01-23T07:42:14.613Z,3.92
2023-01-23T07:44:44.308Z,3.96
2023-01-23T07:47:13.417Z,3.92
2023-01-23T07:49:42.451Z,3.93
2023-01-23T07:52:11.777Z,3.95
2023-01-23T07:54:42.297Z,4.06
2023-01-23T07:57:11.545Z,4.03
2023-01-23T07:59:40.639Z,4.04
2023-01-23T08:02:11.295Z,4.09
2023-01-23T08:04:40.634Z,4.14
2023-01-23T08:07:09.783Z,4.14
2023-01-23T08:09:38.805Z,4.14
2023-01-23T08:12:09.497Z,4.08
2023-01-23T08:14:39.310Z,4.09
2023-01-23T08:17:08.624Z,4.11
2023-01-23T08:19:37.661Z,4.08
2023-01-23T08:22:07.136Z,4.18
2023-01-23T08:24:36.259Z,4.19
2023-01-23T08:27:05.841Z,4.19
2023-01-23T08:29:36.384Z,4.23
2023-01-23T08:32:05.960Z,4.25
2023-01-23T08:34:35.003Z,4.20
2023-01-23T08:37:04.024Z,4.16
2023-01-23T08:39:33.224Z,4.16
2023-01-23T08:42:02.258Z,4.16
2023-01-23T08:44:34.280Z,4.30
2023-01-23T08:47:04.919Z,4.31
2023-01-23T08:49:33.984Z,4.34
2023-01-23T08:52:05.397Z,4.53
2023-01-23T08:54:34.685Z,4.54
2023-01-23T08:57:03.771Z,4.61
2023-01-23T08:59:33.009Z,4.65
2023-01-23T09:02:02.669Z,4.64
2023-01-23T09:04:33.126Z,4.66
2023-01-23T09:07:02.205Z,4.64
2023-01-23T09:09:31.391Z,4.57
2023-01-23T09:12:00.516Z,4.54
2023-01-23T09:14:29.610Z,4.51
2023-01-23T09:16:58.777Z,4.62
2023-01-23T09:19:27.849Z,4.55
2023-01-23T09:21:58.241Z,4.48
2023-01-23T09:24:27.433Z,4.46
2023-01-23T09:26:56.496Z,4.55
2023-01-23T09:29:25.842Z,4.54
2023-01-23T09:31:54.978Z,4.53
2023-01-23T09:34:24.052Z,4.51
2023-01-23T09:36:53.973Z,4.51
2023-01-23T09:39:24.581Z,4.66
2023-01-23T09:41:53.892Z,4.59
2023-01-23T09:44:31.624Z,4.64
2023-01-23T09:47:08.103Z,4.64
2023-01-23T09:49:47.541Z,4.67
2023-01-23T09:52:21.254Z,4.61
2023-01-23T09:54:56.826Z,4.50
2023-01-23T09:57:31.219Z,4.43
2023-01-23T10:00:14.227Z,4.57
2023-01-23T10:02:45.475Z,4.64
2023-01-23T10:05:16.804Z,4.62
2023-01-23T10:08:06.860Z,4.56
2023-01-23T10:11:00.458Z,4.67
2023-01-23T10:13:59.721Z,4.65
2023-01-23T10:17:04.090Z,4.59
2023-01-23T10:19:49.711Z,4.50
2023-01-23T10:22:36.234Z,4.44
2023-01-23T10:25:17.528Z,4.42
2023-01-23T10:27:50.926Z,4.34
2023-01-23T10:30:28.412Z,4.39
2023-01-23T10:33:10.826Z,4.59
2023-01-23T10:35:50.645Z,4.50
2023-01-23T10:38:32.209Z,4.52
2023-01-23T10:41:21.200Z,4.61
2023-01-23T10:43:55.212Z,4.56
2023-01-23T10:46:32.469Z,4.58
2023-01-23T10:49:02.391Z,4.49
2023-01-23T10:51:36.360Z,4.56
2023-01-23T10:54:30.328Z,4.46
2023-01-23T10:57:03.110Z,4.51
2023-01-23T10:59:41.357Z,4.58
2023-01-23T11:02:29.541Z,4.55
2023-01-23T11:04:59.767Z,4.56
2023-01-23T11:07:31.903Z,4.66
2023-01-23T11:10:05.049Z,4.75
2023-01-23T11:12:36.698Z,4.79
2023-01-23T11:15:24.129Z,4.84
2023-01-23T11:17:55.469Z,4.93
2023-01-23T11:20:31.947Z,5.01
2023-01-23T11:23:14.246Z,4.98
2023-01-23T11:25:45.707Z,5.00
2023-01-23T11:28:27.060Z,5.05
2023-01-23T11:31:13.706Z,4.90
2023-01-23T11:33:52.381Z,4.87
2023-01-23T11:36:39.465Z,4.85
2023-01-23T11:39:23.064Z,4.89
2023-01-23T11:41:52.716Z,4.90
2023-01-23T11:44:24.557Z,4.99
2023-01-23T11:47:31.473Z,5.18
2023-01-23T11:50:31.371Z,5.16
2023-01-23T11:53:07.055Z,5.22
2023-01-23T11:56:32.695Z,5.26
2023-01-23T11:59:37.695Z,5.28
2023-01-23T12:02:54.215Z,5.20
2023-01-23T12:08:54.327Z,5.33
2023-01-23T12:11:24.568Z,5.44
2023-01-23T12:14:05.312Z,5.55
2023-01-23T12:16:58.691Z,5.67
2023-01-23T12:19:55.936Z,5.69
2023-01-23T12:22:37.278Z,5.69
2023-01-23T12:25:21.139Z,5.69
2023-01-23T12:27:58.016Z,5.62
2023-01-23T12:31:05.765Z,5.63
2023-01-23T12:34:06.572Z,5.64
2023-01-23T12:37:22.294Z,5.55
2023-01-23T12:40:13.724Z,5.56
2023-01-23T12:42:51.650Z,5.55
2023-01-23T12:45:34.089Z,5.45
2023-01-23T12:48:12.618Z,5.49
2023-01-23T12:50:48.644Z,5.43
2023-01-23T12:53:22.164Z,5.53
2023-01-23T12:56:00.342Z,5.63
2023-01-23T12:58:35.261Z,5.64
2023-01-23T13:01:36.662Z,5.52
2023-01-23T13:04:39.815Z,5.50
2023-01-23T13:07:27.522Z,5.28
2023-01-23T13:10:48.258Z,5.28
2023-01-23T13:13:19.007Z,5.06
2023-01-23T13:16:05.421Z,5.00
2023-01-23T13:18:55.903Z,4.87
2023-01-23T13:21:42.761Z,4.78
2023-01-23T13:25:04.053Z,4.80
2023-01-23T13:27:47.377Z,4.79
2023-01-23T13:30:44.861Z,4.73
2023-01-23T13:33:58.774Z,4.72
2023-01-23T13:36:39.445Z,4.70
2023-01-23T13:39:31.407Z,4.75
2023-01-23T13:42:36.083Z,4.73
2023-01-23T13:45:31.166Z,4.64
2023-01-23T14:20:39.824Z,4.30
2023-01-23T14:23:29.243Z,4.28
2023-01-23T14:25:59.059Z,4.29
2023-01-23T14:28:28.575Z,4.29
2023-01-23T14:31:01.931Z,4.43
2023-01-23T14:33:42.667Z,4.36
2023-01-23T14:36:17.893Z,4.37
2023-01-23T14:38:50.228Z,4.33
2023-01-23T14:41:27.899Z,4.44
2023-01-23T14:44:01.142Z,4.39
2023-01-23T14:46:40.231Z,4.35
2023-01-23T14:49:12.110Z,4.44
2023-01-23T14:51:41.142Z,4.54
2023-01-23T14:54:22.991Z,4.57
2023-01-23T14:56:54.169Z,4.52
2023-01-23T14:59:31.127Z,4.33
2023-01-23T15:02:10.146Z,4.39
2023-01-23T15:05:28.923Z,4.40
2023-01-23T15:08:03.240Z,4.39
2023-01-23T15:10:36.674Z,4.45
2023-01-23T15:13:10.086Z,4.52
2023-01-23T15:15:45.375Z,4.53
2023-01-23T15:18:23.688Z,4.52
2023-01-23T15:20:59.355Z,4.46
2023-01-23T15:23:32.302Z,4.55
2023-01-23T15:26:26.445Z,4.53
2023-01-23T15:29:00.374Z,4.46
2023-01-23T15:31:33.853Z,4.40
2023-01-23T15:34:22.010Z,4.37
2023-01-23T15:37:02.416Z,4.35
2023-01-23T15:39:35.933Z,4.37
2023-01-23T15:42:24.819Z,4.36
2023-01-23T15:44:53.940Z,4.33
2023-01-23T15:47:23.299Z,4.32
2023-01-23T15:49:52.348Z,4.37
2023-01-23T15:52:27.388Z,4.32
2023-01-23T15:55:00.834Z,4.28
2023-01-23T15:57:30.181Z,4.26
2023-01-23T16:00:00.344Z,4.18
2023-01-23T16:02:31.615Z,4.21
2023-01-23T16:05:02.316Z,4.20
2023-01-23T16:07:35.683Z,4.23
2023-01-23T16:10:09.157Z,4.22
2023-01-23T16:12:40.198Z,4.15
2023-01-23T16:15:16.828Z,4.20
2023-01-23T16:17:55.396Z,4.14
2023-01-23T16:20:29.175Z,4.15
2023-01-23T16:23:14.129Z,4.13
2023-01-23T16:25:46.186Z,4.15
2023-01-23T16:28:17.225Z,4.12
2023-01-23T16:30:48.844Z,4.09
2023-01-23T16:33:19.730Z,4.07
2023-01-23T16:35:50.894Z,4.09
2023-01-23T16:38:25.732Z,4.08
2023-01-23T16:40:57.465Z,4.15
2023-01-23T16:43:27.833Z,4.11
2023-01-23T16:45:57.832Z,4.04
2023-01-23T16:48:28.863Z,4.02
2023-01-23T16:51:03.891Z,4.06
2023-01-23T16:53:39.173Z,4.02
2023-01-23T16:56:22.173Z,4.00
2023-01-23T16:58:52.544Z,4.02
2023-01-23T17:01:24.172Z,3.96
2023-01-23T17:04:03.945Z,3.93
2023-01-23T17:06:33.452Z,3.92
2023-01-23T17:09:10.338Z,3.91
2023-01-23T17:11:44.713Z,3.94
2023-01-23T17:14:19.004Z,3.95
2023-01-23T17:16:51.581Z,3.87
2023-01-23T17:19:29.676Z,3.84
2023-01-23T17:22:00.187Z,3.76
2023-01-23T17:24:31.077Z,3.77
2023-01-23T17:27:00.150Z,3.83
2023-01-23T17:29:29.397Z,3.77
2023-01-23T17:31:58.452Z,3.86
2023-01-23T17:34:49.359Z,3.88
2023-01-23T17:37:22.135Z,3.88
2023-01-23T17:39:53.037Z,3.96
2023-01-23T17:42:22.782Z,3.91
2023-01-23T17:44:52.278Z,3.88
2023-01-23T17:47:24.066Z,3.81
2023-01-23T17:49:54.737Z,3.81
2023-01-23T17:52:25.128Z,3.80
2023-01-23T17:54:55.775Z,3.80
2023-01-23T17:57:24.834Z,3.74
2023-01-23T17:59:56.606Z,3.75
2023-01-23T18:02:29.865Z,3.72
2023-01-23T18:04:59.792Z,3.68
2023-01-23T18:07:29.145Z,3.68
2023-01-23T18:10:00.436Z,3.63
2023-01-23T18:12:39.495Z,3.62
2023-01-23T18:15:16.090Z,3.63
2023-01-23T18:17:55.989Z,3.61
2023-01-23T18:20:26.560Z,3.62
2023-01-23T18:22:56.920Z,3.62
2023-01-23T18:25:29.649Z,3.62
2023-01-23T18:28:05.037Z,3.60
2023-01-23T18:30:52.246Z,3.53
2023-01-23T18:34:06.209Z,3.54
2023-01-23T18:36:54.609Z,3.52
2023-01-23T18:39:44.105Z,3.46
2023-01-23T18:42:25.713Z,3.42
2023-01-23T18:44:59.867Z,3.46
2023-01-23T18:47:30.018Z,3.43
2023-01-23T18:50:00.881Z,3.41
2023-01-23T18:52:45.181Z,3.41
2023-01-23T18:55:31.445Z,3.36
2023-01-23T18:58:34.773Z,3.35
2023-01-23T19:01:19.736Z,3.37
2023-01-23T19:03:51.262Z,3.41
2023-01-23T19:06:24.087Z,3.42
2023-01-23T19:08:56.528Z,3.43
2023-01-23T19:11:37.489Z,3.41
2023-01-23T19:14:21.006Z,3.43
2023-01-23T19:16:59.967Z,3.41
2023-01-23T19:19:41.082Z,3.39
2023-01-23T19:22:12.829Z,3.40
2023-01-23T19:24:44.696Z,3.43
2023-01-23T19:27:22.984Z,3.44
2023-01-23T19:29:54.066Z,3.39
2023-01-23T19:32:24.086Z,3.36
2023-01-23T19:34:56.523Z,3.33
2023-01-23T19:37:28.509Z,3.30
2023-01-23T19:39:59.720Z,3.36
2023-01-23T19:42:31.908Z,3.32
2023-01-23T19:45:12.970Z,3.31
2023-01-23T19:47:42.940Z,3.27
2023-01-23T19:50:18.226Z,3.28
2023-01-23T19:52:52.502Z,3.27
2023-01-23T19:55:27.806Z,3.26
2023-01-23T19:58:02.050Z,3.26
2023-01-23T20:00:36.480Z,3.26
2023-01-23T20:03:06.490Z,3.25
2023-01-23T20:05:36.560Z,3.23
2023-01-23T20:08:06.703Z,3.27
2023-01-23T20:10:41.289Z,3.28
2023-01-23T20:13:12.547Z,3.32
2023-01-23T20:15:43.298Z,3.28
2023-01-23T20:18:12.844Z,3.22
2023-01-23T20:20:42.090Z,3.20
2023-01-23T20:23:11.260Z,3.24
2023-01-23T20:25:40.559Z,3.18
2023-01-23T20:28:11.200Z,3.15
2023-01-23T20:30:42.497Z,3.13
2023-01-23T20:33:11.571Z,3.13
2023-01-23T20:35:40.698Z,3.13
2023-01-23T20:38:09.781Z,3.19
2023-01-23T20:40:39.229Z,3.20
2023-01-23T20:43:08.910Z,3.15
2023-01-23T20:45:45.594Z,3.20
2023-01-23T20:48:19.234Z,3.20
2023-01-23T20:50:54.947Z,3.15
2023-01-23T20:53:30.554Z,3.21
2023-01-23T20:56:02.085Z,3.27
2023-01-23T20:58:49.321Z,3.16
2023-01-23T21:01:20.673Z,3.14
2023-01-23T21:03:54.342Z,3.14
2023-01-23T21:06:24.017Z,3.12
2023-01-23T21:08:53.764Z,3.09
2023-01-23T21:11:24.093Z,3.07
2023-01-23T21:13:54.886Z,3.09
2023-01-23T21:16:24.351Z,3.04
2023-01-23T21:18:55.107Z,3.04
2023-01-23T21:21:24.903Z,2.99
2023-01-23T21:23:54.460Z,3.04
2023-01-23T21:26:26.923Z,3.00
2023-01-23T21:28:58.646Z,3.00
2023-01-23T21:31:32.936Z,3.03
2023-01-23T21:34:06.247Z,3.07
2023-01-23T21:36:36.855Z,3.06
2023-01-23T21:39:22.417Z,3.06
2023-01-23T21:41:53.147Z,3.02
2023-01-23T21:44:24.558Z,2.95
2023-01-23T21:46:59.455Z,2.94
2023-01-23T21:49:31.357Z,2.98
2023-01-23T21:52:00.748Z,2.99
2023-01-23T21:54:29.949Z,3.00
2023-01-23T21:57:00.734Z,2.93
2023-01-23T21:59:29.879Z,3.00
2023-01-23T22:01:57.986Z,3.00
2023-01-23T22:04:27.101Z,2.88
2023-01-23T22:06:59.314Z,2.90
2023-01-23T22:09:28.398Z,2.91
2023-01-23T22:11:57.445Z,2.89
2023-01-23T22:14:26.527Z,2.94
2023-01-23T22:16:55.660Z,2.96
2023-01-23T22:19:25.915Z,3.01
2023-01-23T22:21:55.941Z,3.09
2023-01-23T22:24:26.650Z,3.08
2023-01-23T22:26:55.798Z,3.02
2023-01-23T22:29:24.846Z,3.04
2023-01-23T22:31:54.117Z,3.04
2023-01-23T22:34:23.302Z,2.99
2023-01-23T22:36:52.818Z,2.95
2023-01-23T22:39:22.057Z,3.01
2023-01-23T22:41:52.661Z,3.14
2023-01-23T22:44:21.785Z,3.09
2023-01-23T22:46:51.922Z,3.04
2023-01-23T22:49:21.086Z,3.02
2023-01-23T22:51:51.584Z,3.01
2023-01-23T22:54:20.881Z,3.00
2023-01-23T22:56:50.088Z,3.03
2023-01-23T22:59:23.520Z,3.05
2023-01-23T23:01:52.626Z,2.99
2023-01-23T23:04:22.376Z,2.93
2023-01-23T23:06:53.912Z,2.92
2023-01-23T23:09:23.217Z,2.95
2023-01-23T23:11:52.892Z,2.91
2023-01-23T23:14:23.473Z,2.85
2023-01-23T23:16:52.590Z,2.84
2023-01-23T23:19:21.753Z,2.82
2023-01-23T23:21:51.372Z,2.81
2023-01-23T23:24:24.837Z,2.81
2023-01-23T23:26:54.164Z,3.01
2023-01-23T23:29:24.833Z,3.03
2023-01-23T23:31:54.553Z,3.00
2023-01-23T23:34:23.718Z,3.08
2023-01-23T23:36:52.801Z,3.02
2023-01-23T23:39:22.065Z,2.94
2023-01-23T23:41:51.114Z,2.95
2023-01-23T23:44:21.362Z,3.05
2023-01-23T23:46:52.015Z,2.97
2023-01-23T23:49:22.070Z,2.99
2023-01-23T23:51:51.200Z,2.93
2023-01-23T23:54:20.523Z,2.89
2023-01-23T23:56:49.661Z,2.99
2023-01-23T23:59:19.210Z,2.95
